Time;durP1;ratioP1;P1;durP2;ratioP2;P2;SDS_P1;SDS_P2;PMS_P1;PMS_P2;Temp;Humidity;BMP_temperature;BMP_pressure;BME280_temperature;BME280_humidity;BME280_pressure;Samples;Min_cycle;Max_cycle;Signal;HPM_P1;HPM_P2
2021/03/02 00:00:01;;;;;;;;;;;;;;;1.48;69.37;98161.76;1753800;80;20220;-54
2021/03/02 00:02:30;;;;;;;;;;;;;;;1.49;69.24;98162.59;1728420;81;21173;-55
2021/03/02 00:04:57;;;;;;;;;;;;;;;1.43;69.02;98158.36;1743195;80;20226;-55
2021/03/02 00:07:26;;;;;;;;;;;;;;;1.31;69.12;98161.05;1754024;80;20283;-55
2021/03/02 00:09:54;;;;;;;;;;;;;;;1.20;69.33;98158.56;1750176;80;20278;-54
2021/03/02 00:12:23;;;;;;;;;;;;;;;1.08;69.60;98161.63;1744447;80;20240;-55
2021/03/02 00:14:50;;;;;;;;;;;;;;;1.06;69.86;98158.23;1745568;80;21211;-54
2021/03/02 00:17:37;;;;;;;;;;;;;;;1.13;69.93;98160.76;1752835;80;20505;-54
2021/03/02 00:20:08;;;;;;;;;;;;;;;1.19;69.91;98156.44;1739107;81;20216;-54
2021/03/02 00:23:00;;;;;;;;;;;;;;;1.29;69.74;98161.05;1749119;81;20219;-55
2021/03/02 00:25:30;;;;;;;;;;;;;;;1.38;69.48;98152.45;1751458;81;20216;-54
2021/03/02 00:27:57;;;;;;;;;;;;;;;1.46;69.18;98153.23;1749951;81;22109;-54
2021/03/02 00:30:24;;;;;;;;;;;;;;;1.47;68.85;98146.81;1732580;81;20271;-55
2021/03/02 00:32:52;;;;;;;;;;;;;;;1.44;68.82;98144.28;1745674;80;20219;-55
2021/03/02 00:35:20;;;;;;;;;;;;;;;1.40;68.58;98141.36;1758682;80;20240;-55
2021/03/02 00:37:48;;;;;;;;;;;;;;;1.29;68.35;98134.20;1750337;80;20222;-56
2021/03/02 00:40:17;;;;;;;;;;;;;;;1.12;68.42;98135.63;1754517;79;21648;-55
2021/03/02 00:42:46;;;;;;;;;;;;;;;1.00;68.82;98134.44;1755234;81;20534;-55
2021/03/02 00:45:14;;;;;;;;;;;;;;;0.96;68.83;98131.06;1758480;80;20279;-55
2021/03/02 00:47:42;;;;;;;;;;;;;;;0.91;68.72;98131.09;1754613;79;20226;-55
2021/03/02 00:50:11;;;;;;;;;;;;;;;0.86;68.95;98133.27;1763958;79;20585;-57
2021/03/02 00:52:38;;;;;;;;;;;;;;;0.87;69.05;98130.70;1764755;80;21204;-55
2021/03/02 00:55:06;;;;;;;;;;;;;;;0.94;68.93;98130.64;1761439;80;21805;-55
2021/03/02 00:57:34;;;;;;;;;;;;;;;1.00;68.74;98122.93;1770502;79;20213;-55
2021/03/02 01:00:06;;;;;;;;;;;;;;;1.00;68.64;98119.09;1765251;80;20213;-56
2021/03/02 01:02:34;;;;;;;;;;;;;;;0.99;68.51;98118.26;1751459;79;20280;-54
2021/03/02 01:05:07;;;;;;;;;;;;;;;0.95;68.46;98114.02;1761031;80;21500;-55
2021/03/02 01:07:35;;;;;;;;;;;;;;;0.91;68.67;98124.70;1751128;79;20212;-54
2021/03/02 01:10:05;;;;;;;;;;;;;;;0.94;68.82;98125.12;1768523;79;20264;-55
2021/03/02 01:12:32;;;;;;;;;;;;;;;0.99;68.89;98115.70;1761196;79;20494;-54
2021/03/02 01:15:00;;;;;;;;;;;;;;;1.05;68.67;98114.79;1761861;80;20240;-54
2021/03/02 01:17:28;;;;;;;;;;;;;;;1.09;68.67;98113.92;1767555;79;21404;-55
2021/03/02 01:19:56;;;;;;;;;;;;;;;1.10;68.59;98117.75;1759299;80;20226;-56
2021/03/02 01:22:23;;;;;;;;;;;;;;;1.16;68.61;98115.55;1765116;79;20259;-54
2021/03/02 01:24:50;;;;;;;;;;;;;;;1.20;68.46;98115.09;1760481;80;20243;-55
2021/03/02 01:27:17;;;;;;;;;;;;;;;1.22;68.29;98102.72;1758855;79;20230;-54
2021/03/02 01:29:44;;;;;;;;;;;;;;;1.22;68.15;98103.17;1755037;80;21368;-54
2021/03/02 01:32:12;;;;;;;;;;;;;;;1.22;68.01;98100.61;1757430;79;22001;-54
2021/03/02 01:34:39;;;;;;;;;;;;;;;1.24;67.87;98102.27;1764973;80;20212;-55
2021/03/02 01:37:06;;;;;;;;;;;;;;;1.30;67.71;98101.39;1744152;81;21052;-55
2021/03/02 01:39:34;;;;;;;;;;;;;;;1.31;67.35;98094.11;1753300;80;20279;-55
2021/03/02 01:42:01;;;;;;;;;;;;;;;1.29;67.17;98094.56;1753090;80;22325;-55
2021/03/02 01:44:28;;;;;;;;;;;;;;;1.22;67.23;98100.17;1748097;81;20212;-55
2021/03/02 01:46:56;;;;;;;;;;;;;;;1.18;67.18;98100.20;1741360;80;20231;-55
2021/03/02 01:49:24;;;;;;;;;;;;;;;1.12;67.23;98098.97;1750351;80;20306;-55
2021/03/02 01:51:51;;;;;;;;;;;;;;;1.04;67.28;98099.05;1755769;80;20228;-55
2021/03/02 01:54:19;;;;;;;;;;;;;;;1.01;67.45;98101.19;1745385;80;21219;-55
2021/03/02 01:56:46;;;;;;;;;;;;;;;1.04;67.56;98093.94;1747000;81;20254;-55
2021/03/02 01:59:13;;;;;;;;;;;;;;;1.05;67.36;98096.49;1755863;81;20479;-55
2021/03/02 02:01:40;;;;;;;;;;;;;;;1.07;67.53;98098.59;1746765;80;20605;-55
2021/03/02 02:04:15;;;;;;;;;;;;;;;1.14;67.54;98101.95;1739784;81;20225;-55
2021/03/02 02:06:57;;;;;;;;;;;;;;;1.19;67.25;98100.19;1746690;80;21195;-55
2021/03/02 02:09:40;;;;;;;;;;;;;;;1.15;66.95;98095.98;1752025;81;21859;-55
2021/03/02 02:12:22;;;;;;;;;;;;;;;1.05;67.04;98095.63;1744614;81;20228;-55
2021/03/02 02:15:04;;;;;;;;;;;;;;;1.04;66.97;98088.83;1733617;81;20219;-55
2021/03/02 02:17:49;;;;;;;;;;;;;;;0.97;67.11;98094.42;1757793;80;20255;-55
2021/03/02 02:20:44;;;;;;;;;;;;;;;0.96;67.29;98093.16;1749328;81;21206;-54
2021/03/02 02:23:22;;;;;;;;;;;;;;;0.98;67.35;98090.16;1747561;80;21798;-53
2021/03/02 02:26:11;;;;;;;;;;;;;;;0.93;67.20;98083.80;1747556;80;20222;-54
2021/03/02 02:28:39;;;;;;;;;;;;;;;0.78;67.50;98086.48;1755608;81;21842;-55
2021/03/02 02:31:07;;;;;;;;;;;;;;;0.66;68.05;98088.70;1755736;80;20210;-55
2021/03/02 02:33:36;;;;;;;;;;;;;;;0.62;68.44;98083.17;1754523;80;21199;-55
2021/03/02 02:36:06;;;;;;;;;;;;;;;0.64;68.63;98084.00;1692973;84;20327;-54
2021/03/02 02:38:33;;;;;;;;;;;;;;;0.67;68.71;98083.55;1744536;81;20216;-55
2021/03/02 02:41:01;;;;;;;;;;;;;;;0.76;68.70;98075.40;1721067;83;20231;-55
2021/03/02 02:43:28;;;;;;;;;;;;;;;0.80;68.51;98079.20;1752549;81;20235;-56
2021/03/02 02:45:55;;;;;;;;;;;;;;;0.80;68.38;98083.04;1745095;80;21413;-54
2021/03/02 02:48:23;;;;;;;;;;;;;;;0.80;68.16;98089.86;1756527;80;20235;-55
2021/03/02 02:50:53;;;;;;;;;;;;;;;0.76;68.17;98094.16;1758158;81;20217;-55
2021/03/02 02:53:22;;;;;;;;;;;;;;;0.73;68.26;98092.45;1770290;80;20641;-54
2021/03/02 02:55:51;;;;;;;;;;;;;;;0.73;68.33;98087.78;1748166;81;20500;-55
2021/03/02 02:58:24;;;;;;;;;;;;;;;0.77;68.42;98083.05;1748076;80;21369;-54
2021/03/02 03:00:51;;;;;;;;;;;;;;;0.81;68.39;98082.19;1750820;80;20224;-55
2021/03/02 03:03:21;;;;;;;;;;;;;;;0.84;68.29;98088.97;1748545;81;20331;-54
2021/03/02 03:05:50;;;;;;;;;;;;;;;0.78;68.42;98080.09;1748394;80;20567;-54
2021/03/02 03:08:20;;;;;;;;;;;;;;;0.73;68.44;98088.63;1743094;81;20219;-54
2021/03/02 03:10:48;;;;;;;;;;;;;;;0.71;68.36;98087.80;1754125;81;21186;-54
2021/03/02 03:13:19;;;;;;;;;;;;;;;0.65;68.60;98081.88;1747837;80;20244;-55
2021/03/02 03:15:49;;;;;;;;;;;;;;;0.65;68.62;98080.17;1753220;80;20244;-54
2021/03/02 03:18:17;;;;;;;;;;;;;;;0.66;68.64;98067.82;1740394;81;20233;-53
2021/03/02 03:20:48;;;;;;;;;;;;;;;0.71;68.47;98067.80;1750165;81;20276;-54
2021/03/02 03:23:15;;;;;;;;;;;;;;;0.68;68.36;98063.98;1753840;81;21378;-54
2021/03/02 03:25:43;;;;;;;;;;;;;;;0.65;68.29;98071.66;1748966;81;20219;-54
2021/03/02 03:28:12;;;;;;;;;;;;;;;0.61;68.33;98065.73;1743783;81;20480;-54
2021/03/02 03:30:39;;;;;;;;;;;;;;;0.62;68.20;98059.75;1758135;80;20235;-55
2021/03/02 03:33:09;;;;;;;;;;;;;;;0.61;68.12;98056.80;1755180;80;20283;-55
2021/03/02 03:35:38;;;;;;;;;;;;;;;0.51;68.01;98057.29;1747518;81;21260;-55
2021/03/02 03:38:05;;;;;;;;;;;;;;;0.41;68.19;98056.94;1749586;81;20509;-56
2021/03/02 03:40:33;;;;;;;;;;;;;;;0.35;68.26;98060.80;1752637;81;20212;-55
2021/03/02 03:43:01;;;;;;;;;;;;;;;0.31;68.19;98054.00;1752750;80;20223;-56
2021/03/02 03:45:28;;;;;;;;;;;;;;;0.21;68.05;98050.65;1759511;80;20505;-55
2021/03/02 03:47:56;;;;;;;;;;;;;;;0.09;67.94;98055.84;1747420;81;21283;-55
2021/03/02 03:50:23;;;;;;;;;;;;;;;-0.03;68.12;98044.83;1755603;80;20232;-54
2021/03/02 03:52:53;;;;;;;;;;;;;;;-0.13;68.28;98047.02;1744505;81;20246;-55
2021/03/02 03:55:22;;;;;;;;;;;;;;;-0.20;68.41;98046.20;1734630;81;20700;-57
2021/03/02 03:57:49;;;;;;;;;;;;;;;-0.27;68.54;98049.61;1741352;80;20238;-55
2021/03/02 04:00:17;;;;;;;;;;;;;;;-0.33;68.60;98040.73;1741779;80;21213;-55
2021/03/02 04:02:44;;;;;;;;;;;;;;;-0.32;68.68;98045.39;1740730;81;20302;-55
2021/03/02 04:05:13;;;;;;;;;;;;;;;-0.25;68.71;98045.38;1746363;80;20223;-55
2021/03/02 04:07:40;;;;;;;;;;;;;;;-0.12;68.73;98049.97;1750741;80;20216;-55
2021/03/02 04:10:08;;;;;;;;;;;;;;;0.02;68.51;98039.71;1747440;81;20223;-55
2021/03/02 04:12:44;;;;;;;;;;;;;;;0.13;68.61;98040.50;1740382;81;21145;-55
2021/03/02 04:15:15;;;;;;;;;;;;;;;0.24;68.20;98040.86;1742321;80;20271;-55
2021/03/02 04:17:50;;;;;;;;;;;;;;;0.31;67.79;98038.67;1746768;80;20291;-55
2021/03/02 04:20:17;;;;;;;;;;;;;;;0.32;67.45;98038.67;1742004;81;20230;-55
2021/03/02 04:22:44;;;;;;;;;;;;;;;0.34;67.40;98031.84;1751930;80;20278;-56
2021/03/02 04:25:34;;;;;;;;;;;;;;;0.36;67.16;98022.89;1749808;80;21227;-55
2021/03/02 04:28:02;;;;;;;;;;;;;;;0.29;66.99;98019.54;1769792;81;20236;-55
2021/03/02 04:30:29;;;;;;;;;;;;;;;0.26;66.84;98017.00;1770320;81;20192;-55
2021/03/02 04:32:56;;;;;;;;;;;;;;;0.22;66.87;98019.17;1770184;80;21881;-54
2021/03/02 04:35:24;;;;;;;;;;;;;;;0.22;66.79;98014.50;1770414;80;20547;-55
2021/03/02 04:37:52;;;;;;;;;;;;;;;0.18;66.59;98018.34;1770842;81;21257;-54
2021/03/02 04:40:19;;;;;;;;;;;;;;;0.13;66.58;98018.81;1757622;80;20246;-55
2021/03/02 04:42:48;;;;;;;;;;;;;;;0.17;66.72;98018.36;1759946;81;20220;-55
2021/03/02 04:45:15;;;;;;;;;;;;;;;0.21;66.51;98004.70;1739790;81;21041;-54
2021/03/02 04:47:43;;;;;;;;;;;;;;;0.18;66.32;98004.31;1758870;81;20240;-56
2021/03/02 04:50:12;;;;;;;;;;;;;;;0.10;66.77;97995.85;1766832;79;21263;-55
2021/03/02 04:52:41;;;;;;;;;;;;;;;0.07;66.54;97994.59;1759782;81;20556;-55
2021/03/02 04:55:10;;;;;;;;;;;;;;;-0.06;66.60;97988.70;1765708;81;20210;-54
2021/03/02 04:57:37;;;;;;;;;;;;;;;-0.22;66.93;97980.72;1740223;82;20578;-54
2021/03/02 05:00:06;;;;;;;;;;;;;;;-0.27;67.42;97983.28;1776340;80;20269;-56
2021/03/02 05:02:33;;;;;;;;;;;;;;;-0.21;67.58;97983.27;1791874;80;21379;-54
2021/03/02 05:05:02;;;;;;;;;;;;;;;-0.19;67.55;97981.55;1795290;80;20223;-55
2021/03/02 05:07:29;;;;;;;;;;;;;;;-0.24;67.72;97976.90;1791254;80;20217;-54
2021/03/02 05:09:56;;;;;;;;;;;;;;;-0.21;67.77;97973.06;1784140;80;20237;-55
2021/03/02 05:12:23;;;;;;;;;;;;;;;-0.02;67.63;97972.53;1783696;80;20502;-54
2021/03/02 05:14:50;;;;;;;;;;;;;;;0.29;67.33;97968.91;1794620;80;21220;-54
2021/03/02 05:17:18;;;;;;;;;;;;;;;0.73;66.75;97953.66;1768675;81;20248;-54
2021/03/02 05:19:45;;;;;;;;;;;;;;;1.30;65.26;97956.91;1788824;80;20226;-55
2021/03/02 05:22:12;;;;;;;;;;;;;;;1.86;64.01;97950.65;1783383;80;20250;-53
2021/03/02 05:24:39;;;;;;;;;;;;;;;2.41;62.48;97943.00;1785190;80;21754;-54
2021/03/02 05:27:06;;;;;;;;;;;;;;;2.86;61.34;97946.92;1791484;80;21943;-53
2021/03/02 05:29:34;;;;;;;;;;;;;;;3.22;59.67;97944.10;1791703;80;20254;-53
2021/03/02 05:32:03;;;;;;;;;;;;;;;3.42;58.14;97939.88;1791474;80;20214;-54
2021/03/02 05:34:31;;;;;;;;;;;;;;;3.85;57.03;97935.57;1779944;80;20232;-54
2021/03/02 05:36:59;;;;;;;;;;;;;;;4.31;54.61;97925.94;1762579;80;20241;-54
2021/03/02 05:39:26;;;;;;;;;;;;;;;4.52;54.40;97928.01;1766873;80;21422;-54
2021/03/02 05:41:53;;;;;;;;;;;;;;;4.77;53.59;97931.25;1786765;80;20514;-53
2021/03/02 05:44:20;;;;;;;;;;;;;;;5.09;51.96;97929.54;1788009;79;20214;-54
2021/03/02 05:46:47;;;;;;;;;;;;;;;5.32;51.46;97932.31;1785961;79;20222;-54
2021/03/02 05:49:15;;;;;;;;;;;;;;;5.78;50.93;97934.01;1783655;80;20246;-53
2021/03/02 05:51:44;;;;;;;;;;;;;;;6.36;48.98;97928.81;1791816;80;21611;-53
2021/03/02 05:54:11;;;;;;;;;;;;;;;6.89;47.90;97928.37;1791123;80;20230;-53
2021/03/02 05:56:40;;;;;;;;;;;;;;;7.42;46.28;97924.36;1782863;80;20673;-54
2021/03/02 05:59:08;;;;;;;;;;;;;;;7.85;44.76;97919.33;1783275;80;20220;-54
2021/03/02 06:01:36;;;;;;;;;;;;;;;8.21;44.61;97922.68;1782850;80;20227;-53
2021/03/02 06:04:04;;;;;;;;;;;;;;;8.70;43.32;97924.59;1790424;80;22138;-54
2021/03/02 06:06:32;;;;;;;;;;;;;;;9.01;42.13;97915.08;1788692;80;20218;-54
2021/03/02 06:09:00;;;;;;;;;;;;;;;9.31;41.87;97919.83;1790415;80;20498;-54
2021/03/02 06:11:31;;;;;;;;;;;;;;;9.74;41.33;97925.66;1794012;80;20227;-55
2021/03/02 06:14:19;;;;;;;;;;;;;;;10.36;40.50;97928.45;1794656;80;20497;-54
2021/03/02 06:16:51;;;;;;;;;;;;;;;11.12;38.43;97927.70;1778272;79;21476;-54
2021/03/02 06:19:21;;;;;;;;;;;;;;;11.33;37.83;97939.17;1790772;80;20230;-54
2021/03/02 06:21:48;;;;;;;;;;;;;;;11.48;37.58;97937.53;1793610;80;20218;-55
2021/03/02 06:24:15;;;;;;;;;;;;;;;11.96;35.91;97927.59;1790819;80;22139;-54
2021/03/02 06:26:42;;;;;;;;;;;;;;;12.11;35.46;97927.69;1796273;79;20222;-54
2021/03/02 06:29:14;;;;;;;;;;;;;;;12.41;34.95;97920.38;1800295;79;20981;-54
2021/03/02 06:31:44;;;;;;;;;;;;;;;12.60;34.08;97923.62;1799537;79;20222;-54
2021/03/02 06:34:16;;;;;;;;;;;;;;;12.74;34.15;97919.38;1794315;79;20226;-53
2021/03/02 06:36:57;;;;;;;;;;;;;;;12.92;33.87;97924.80;1784968;79;20267;-54
2021/03/02 06:39:42;;;;;;;;;;;;;;;13.46;33.72;97920.80;1799930;79;20513;-53
2021/03/02 06:42:16;;;;;;;;;;;;;;;14.15;31.73;97915.17;1795608;79;23668;-54
2021/03/02 06:44:46;;;;;;;;;;;;;;;14.21;31.71;97916.09;1799472;79;20497;-53
2021/03/02 06:47:36;;;;;;;;;;;;;;;14.30;31.66;97919.87;1797879;79;20234;-53
2021/03/02 06:50:07;;;;;;;;;;;;;;;14.80;32.13;97922.75;1787801;79;20269;-53
2021/03/02 06:52:36;;;;;;;;;;;;;;;15.51;29.93;97912.72;1789463;79;21494;-55
2021/03/02 06:55:06;;;;;;;;;;;;;;;15.71;29.21;97914.79;1797876;79;21189;-54
2021/03/02 06:57:33;;;;;;;;;;;;;;;15.85;29.83;97921.69;1783602;79;20261;-54
2021/03/02 07:00:00;;;;;;;;;;;;;;;16.40;27.07;97914.73;1800199;78;20246;-53
2021/03/02 07:02:33;;;;;;;;;;;;;;;16.28;28.28;97913.39;1800227;79;20278;-54
2021/03/02 07:05:17;;;;;;;;;;;;;;;16.74;28.09;97911.31;1799564;79;20218;-54
2021/03/02 07:07:47;;;;;;;;;;;;;;;17.22;27.31;97920.00;1800156;79;22262;-53
2021/03/02 07:10:15;;;;;;;;;;;;;;;17.37;26.77;97921.91;1800225;79;20571;-53
2021/03/02 07:12:42;;;;;;;;;;;;;;;17.39;26.43;97916.09;1795997;79;20242;-53
2021/03/02 07:15:12;;;;;;;;;;;;;;;17.10;26.09;97920.00;1792743;80;20718;-53
2021/03/02 07:17:42;;;;;;;;;;;;;;;16.58;26.90;97918.64;1793948;79;20206;-53
2021/03/02 07:20:12;;;;;;;;;;;;;;;16.19;27.82;97919.28;1800336;79;21202;-55
2021/03/02 07:22:39;;;;;;;;;;;;;;;15.82;27.80;97924.52;1796022;79;20605;-53
2021/03/02 07:25:12;;;;;;;;;;;;;;;15.13;29.08;97922.73;1800294;79;20217;-53
2021/03/02 07:27:41;;;;;;;;;;;;;;;15.05;28.93;97921.96;1791411;79;20230;-53
2021/03/02 07:30:10;;;;;;;;;;;;;;;15.05;29.20;97914.95;1791053;80;20227;-53
2021/03/02 07:32:41;;;;;;;;;;;;;;;15.24;29.24;97915.00;1791115;80;22250;-54
2021/03/02 07:35:11;;;;;;;;;;;;;;;15.52;28.94;97918.33;1788790;80;20262;-53
2021/03/02 07:37:38;;;;;;;;;;;;;;;16.03;28.25;97920.85;1777742;80;20490;-53
2021/03/02 07:40:07;;;;;;;;;;;;;;;16.09;28.30;97910.43;1791040;80;20229;-53
2021/03/02 07:42:35;;;;;;;;;;;;;;;16.37;28.53;97913.19;1746061;82;20287;-53
2021/03/02 07:45:11;;;;;;;;;;;;;;;16.84;27.57;97915.84;1788690;80;21336;-54
2021/03/02 07:47:53;;;;;;;;;;;;;;;17.02;27.14;97916.27;1774309;80;21997;-53
2021/03/02 07:50:31;;;;;;;;;;;;;;;17.08;27.32;97916.64;1775740;80;20238;-53
2021/03/02 07:53:10;;;;;;;;;;;;;;;17.29;26.86;97910.23;1777124;80;20501;-54
2021/03/02 07:55:39;;;;;;;;;;;;;;;17.31;27.22;97919.30;1779921;80;20219;-53
2021/03/02 07:58:17;;;;;;;;;;;;;;;17.67;26.93;97908.21;1789593;80;21638;-53
2021/03/02 08:00:48;;;;;;;;;;;;;;;18.17;26.13;97907.79;1789835;79;20265;-53
2021/03/02 08:03:20;;;;;;;;;;;;;;;18.60;25.57;97909.53;1791116;80;20234;-54
2021/03/02 08:05:49;;;;;;;;;;;;;;;19.19;24.13;97904.70;1790839;80;20234;-53
2021/03/02 08:08:26;;;;;;;;;;;;;;;19.34;24.45;97895.98;1781727;80;20222;-53
2021/03/02 08:10:56;;;;;;;;;;;;;;;19.44;24.08;97894.22;1767656;80;21664;-53
2021/03/02 08:13:39;;;;;;;;;;;;;;;19.68;24.09;97890.77;1785819;80;20239;-53
2021/03/02 08:16:08;;;;;;;;;;;;;;;20.09;24.32;97892.09;1767170;80;20221;-53
2021/03/02 08:18:37;;;;;;;;;;;;;;;20.83;23.42;97888.09;1780249;80;20222;-53
2021/03/02 08:21:07;;;;;;;;;;;;;;;21.20;22.51;97887.33;1790926;80;21270;-53
2021/03/02 08:23:57;;;;;;;;;;;;;;;21.20;22.41;97881.20;1789763;80;21370;-54
2021/03/02 08:26:35;;;;;;;;;;;;;;;21.58;22.12;97884.22;1786759;80;37474;-53
2021/03/02 08:29:12;;;;;;;;;;;;;;;22.31;20.82;97876.77;1790630;80;20478;-53
2021/03/02 08:31:42;;;;;;;;;;;;;;;22.74;20.94;97881.75;1790970;80;20221;-53
2021/03/02 08:34:11;;;;;;;;;;;;;;;23.26;20.37;97891.57;1746083;81;20220;-53
2021/03/02 08:36:39;;;;;;;;;;;;;;;23.71;20.45;97889.13;1790810;80;21202;-53
2021/03/02 08:39:11;;;;;;;;;;;;;;;24.39;19.63;97875.89;1790927;80;20218;-53
2021/03/02 08:41:43;;;;;;;;;;;;;;;24.75;18.93;97877.78;1789621;80;20534;-53
2021/03/02 08:44:25;;;;;;;;;;;;;;;24.78;18.49;97872.62;1780719;80;20798;-52
2021/03/02 08:46:57;;;;;;;;;;;;;;;24.74;18.83;97872.63;1775580;80;20206;-53
2021/03/02 08:49:25;;;;;;;;;;;;;;;24.99;18.33;97872.09;1733108;82;23138;-53
2021/03/02 08:52:02;;;;;;;;;;;;;;;25.22;17.52;97870.06;1736563;82;20505;-53
2021/03/02 08:54:29;;;;;;;;;;;;;;;25.31;17.89;97862.41;1716449;83;20294;-53
2021/03/02 08:57:02;;;;;;;;;;;;;;;25.55;17.72;97860.69;1716380;83;20230;-54
2021/03/02 08:59:30;;;;;;;;;;;;;;;25.71;17.38;97863.27;1778326;79;20222;-53
2021/03/02 09:01:57;;;;;;;;;;;;;;;25.87;17.80;97856.55;1761923;80;21180;-58
2021/03/02 09:04:32;;;;;;;;;;;;;;;25.99;18.88;97870.81;1789757;80;20210;-55
2021/03/02 09:07:00;;;;;;;;;;;;;;;25.96;18.62;97861.34;1785759;80;20234;-54
2021/03/02 09:09:29;;;;;;;;;;;;;;;25.74;17.61;97862.93;1783745;80;20218;-53
2021/03/02 09:11:58;;;;;;;;;;;;;;;25.42;18.00;97860.72;1782867;80;20214;-53
2021/03/02 09:14:33;;;;;;;;;;;;;;;25.58;17.97;97861.67;1790725;80;21333;-53
2021/03/02 09:17:02;;;;;;;;;;;;;;;25.78;18.21;97860.75;1778496;80;20218;-53
2021/03/02 09:19:41;;;;;;;;;;;;;;;26.11;17.82;97862.74;1779200;80;20233;-52
2021/03/02 09:22:17;;;;;;;;;;;;;;;26.49;17.46;97860.65;1791022;80;20234;-52
2021/03/02 09:24:47;;;;;;;;;;;;;;;26.55;17.27;97866.09;1786795;80;20235;-52
2021/03/02 09:27:18;;;;;;;;;;;;;;;26.49;17.40;97860.14;1772901;79;21195;-53
2021/03/02 09:29:50;;;;;;;;;;;;;;;26.54;17.76;97859.09;1798403;79;20650;-53
2021/03/02 09:32:23;;;;;;;;;;;;;;;26.84;17.28;97861.86;1799027;79;20210;-54
2021/03/02 09:35:00;;;;;;;;;;;;;;;26.79;17.22;97861.09;1798720;79;20211;-53
2021/03/02 09:37:28;;;;;;;;;;;;;;;26.74;17.39;97861.30;1792672;79;20580;-52
2021/03/02 09:40:10;;;;;;;;;;;;;;;26.71;17.50;97861.65;1771069;81;21380;-54
2021/03/02 09:42:40;;;;;;;;;;;;;;;26.94;17.75;97857.61;1767553;81;20208;-53
2021/03/02 09:45:16;;;;;;;;;;;;;;;27.31;17.06;97857.27;1750186;81;20224;-53
2021/03/02 09:47:44;;;;;;;;;;;;;;;27.29;16.99;97861.92;1770464;81;20862;-54
2021/03/02 09:50:15;;;;;;;;;;;;;;;27.43;17.07;97864.28;1799457;79;20210;-54
2021/03/02 09:52:48;;;;;;;;;;;;;;;27.63;16.75;97857.38;1799944;79;21363;-54
2021/03/02 09:55:23;;;;;;;;;;;;;;;27.68;16.72;97863.47;1799688;79;20557;-54
2021/03/02 09:58:15;;;;;;;;;;;;;;;27.83;16.39;97858.10;1799172;79;20226;-53
2021/03/02 10:00:49;;;;;;;;;;;;;;;27.79;16.45;97866.98;1785495;79;20224;-55
2021/03/02 10:03:22;;;;;;;;;;;;;;;27.73;16.41;97867.73;1797921;79;20214;-53
2021/03/02 10:05:55;;;;;;;;;;;;;;;27.76;16.59;97862.55;1792582;79;22308;-53
2021/03/02 10:08:37;;;;;;;;;;;;;;;27.73;16.56;97860.58;1788896;79;20721;-52
2021/03/02 10:11:16;;;;;;;;;;;;;;;27.76;16.71;97853.21;1796551;79;20482;-54
2021/03/02 10:13:52;;;;;;;;;;;;;;;28.00;16.60;97853.42;1788104;79;20221;-54
2021/03/02 10:16:48;;;;;;;;;;;;;;;28.15;15.99;97845.37;1798088;79;20246;-54
2021/03/02 10:19:17;;;;;;;;;;;;;;;27.99;16.58;97849.91;1772587;81;20673;-54
2021/03/02 10:21:46;;;;;;;;;;;;;;;27.89;15.87;97844.84;1793605;79;20260;-53
2021/03/02 10:24:27;;;;;;;;;;;;;;;27.68;16.65;97845.66;1792451;79;20244;-53
2021/03/02 10:26:56;;;;;;;;;;;;;;;27.59;16.69;97837.42;1787476;79;20282;-54
2021/03/02 10:29:23;;;;;;;;;;;;;;;27.64;16.89;97835.54;1789831;79;20226;-54
2021/03/02 10:31:50;;;;;;;;;;;;;;;27.64;16.59;97834.20;1792402;80;22136;-53
2021/03/02 10:34:19;;;;;;;;;;;;;;;27.60;16.29;97827.58;1790713;80;20217;-54
2021/03/02 10:36:52;;;;;;;;;;;;;;;27.58;16.23;97822.44;1786826;80;20213;-53
2021/03/02 10:39:19;;;;;;;;;;;;;;;27.41;16.19;97815.16;1791900;80;20226;-53
2021/03/02 10:41:47;;;;;;;;;;;;;;;27.10;16.40;97815.34;1790969;80;20497;-53
2021/03/02 10:44:15;;;;;;;;;;;;;;;26.84;16.74;97825.09;1794456;80;20665;-53
2021/03/02 10:46:43;;;;;;;;;;;;;;;26.81;16.91;97825.79;1792804;80;20227;-53
2021/03/02 10:49:10;;;;;;;;;;;;;;;26.74;17.17;97814.19;1789769;80;20214;-53
2021/03/02 10:51:39;;;;;;;;;;;;;;;26.66;16.99;97809.45;1794604;80;20246;-52
2021/03/02 10:54:08;;;;;;;;;;;;;;;26.43;16.96;97801.82;1794339;80;20214;-54
2021/03/02 10:56:35;;;;;;;;;;;;;;;25.99;17.17;97809.65;1792130;80;21360;-54
2021/03/02 10:59:05;;;;;;;;;;;;;;;25.67;17.46;97802.16;1789300;79;20653;-53
2021/03/02 11:01:32;;;;;;;;;;;;;;;25.47;17.60;97810.55;1788702;80;20502;-53
2021/03/02 11:04:01;;;;;;;;;;;;;;;25.16;17.85;97810.00;1791137;80;20609;-55
2021/03/02 11:06:29;;;;;;;;;;;;;;;24.95;18.24;97815.01;1794793;80;20230;-56
2021/03/02 11:09:02;;;;;;;;;;;;;;;24.91;18.33;97809.22;1794540;80;22178;-55
2021/03/02 11:11:29;;;;;;;;;;;;;;;24.91;18.46;97806.56;1791011;80;20225;-55
2021/03/02 11:13:58;;;;;;;;;;;;;;;24.77;18.43;97784.69;1784966;80;20242;-55
2021/03/02 11:16:25;;;;;;;;;;;;;;;24.64;18.54;97793.20;1785084;80;21992;-55
2021/03/02 11:18:54;;;;;;;;;;;;;;;24.70;18.60;97788.52;1782536;80;20224;-55
2021/03/02 11:21:23;;;;;;;;;;;;;;;24.64;18.72;97783.06;1789396;80;21373;-55
2021/03/02 11:23:50;;;;;;;;;;;;;;;24.61;18.77;97792.20;1795212;80;20218;-55
2021/03/02 11:26:17;;;;;;;;;;;;;;;24.79;18.64;97790.68;1795081;80;20219;-56
2021/03/02 11:28:44;;;;;;;;;;;;;;;24.95;18.61;97787.98;1783751;80;20367;-55
2021/03/02 11:31:11;;;;;;;;;;;;;;;25.28;18.32;97779.08;1787847;80;20218;-55
2021/03/02 11:33:39;;;;;;;;;;;;;;;25.58;18.48;97782.77;1775597;81;21445;-55
2021/03/02 11:36:09;;;;;;;;;;;;;;;25.82;17.82;97784.95;1775514;81;20226;-55
2021/03/02 11:38:36;;;;;;;;;;;;;;;25.85;17.89;97785.92;1786697;80;20233;-54
2021/03/02 11:41:04;;;;;;;;;;;;;;;25.74;17.87;97782.34;1790870;80;20596;-54
2021/03/02 11:43:31;;;;;;;;;;;;;;;25.63;17.97;97763.66;1790876;80;20226;-54
2021/03/02 11:45:59;;;;;;;;;;;;;;;25.52;18.15;97783.47;1791069;80;21196;-54
2021/03/02 11:48:26;;;;;;;;;;;;;;;25.47;17.93;97773.86;1791008;80;21922;-54
2021/03/02 11:50:56;;;;;;;;;;;;;;;25.28;18.23;97779.94;1784221;80;20222;-54
2021/03/02 11:53:25;;;;;;;;;;;;;;;25.07;18.17;97771.18;1791002;80;20238;-55
2021/03/02 11:55:52;;;;;;;;;;;;;;;24.68;18.68;97781.23;1791052;80;20253;-55
2021/03/02 11:58:19;;;;;;;;;;;;;;;24.52;18.60;97776.73;1757980;81;22666;-55
2021/03/02 12:00:46;;;;;;;;;;;;;;;24.39;18.61;97770.64;1786336;80;20215;-54
2021/03/02 12:03:15;;;;;;;;;;;;;;;24.40;18.69;97779.42;1790473;80;20242;-54
2021/03/02 12:05:44;;;;;;;;;;;;;;;24.41;18.45;97774.45;1791047;80;21047;-55
2021/03/02 12:08:13;;;;;;;;;;;;;;;24.34;18.56;97776.95;1746141;82;20240;-53
2021/03/02 12:10:40;;;;;;;;;;;;;;;24.22;18.60;97776.94;1791047;80;21844;-54
2021/03/02 12:13:08;;;;;;;;;;;;;;;24.02;18.82;97779.91;1784115;80;20218;-54
2021/03/02 12:15:35;;;;;;;;;;;;;;;23.95;19.02;97776.27;1775547;81;20218;-54
2021/03/02 12:18:03;;;;;;;;;;;;;;;23.89;19.28;97779.06;1781235;80;20226;-53
2021/03/02 12:20:32;;;;;;;;;;;;;;;23.92;19.03;97774.45;1791019;80;20238;-54
2021/03/02 12:23:00;;;;;;;;;;;;;;;23.94;19.32;97778.58;1791013;80;21073;-54
2021/03/02 12:25:27;;;;;;;;;;;;;;;23.97;19.32;97777.43;1790943;80;20222;-53
2021/03/02 12:27:56;;;;;;;;;;;;;;;23.88;19.23;97776.09;1790756;80;20266;-54
2021/03/02 12:30:25;;;;;;;;;;;;;;;23.82;19.32;97779.39;1800024;79;20556;-54
2021/03/02 12:32:52;;;;;;;;;;;;;;;23.79;19.24;97781.01;1800241;79;20213;-55
2021/03/02 12:35:20;;;;;;;;;;;;;;;23.63;19.33;97773.02;1800297;79;22205;-54
2021/03/02 12:37:47;;;;;;;;;;;;;;;23.32;19.85;97786.36;1799661;79;20341;-54
2021/03/02 12:40:16;;;;;;;;;;;;;;;23.26;19.89;97775.58;1800215;79;20245;-54
2021/03/02 12:42:43;;;;;;;;;;;;;;;23.19;20.11;97763.94;1800081;79;20222;-54
2021/03/02 12:45:12;;;;;;;;;;;;;;;22.88;20.10;97770.56;1800284;79;20210;-54
2021/03/02 12:47:39;;;;;;;;;;;;;;;22.50;20.13;97766.05;1798092;79;22120;-54
2021/03/02 12:50:08;;;;;;;;;;;;;;;22.07;20.52;97768.97;1796829;79;20213;-54
2021/03/02 12:52:37;;;;;;;;;;;;;;;21.59;21.14;97768.34;1800259;79;20214;-55
2021/03/02 12:55:06;;;;;;;;;;;;;;;21.23;21.65;97772.70;1800246;79;20285;-54
2021/03/02 12:57:34;;;;;;;;;;;;;;;21.05;21.84;97770.00;1798761;79;20218;-55
2021/03/02 13:00:01;;;;;;;;;;;;;;;20.76;22.14;97771.78;1792664;80;21207;-55
2021/03/02 13:02:29;;;;;;;;;;;;;;;20.54;22.60;97768.13;1798076;79;20315;-54
2021/03/02 13:04:57;;;;;;;;;;;;;;;20.49;22.58;97767.23;1800419;79;20501;-54